sensor_id;sensor_type;location;lat;lon;timestamp;pressure;altitude;pressure_sealevel;temperature;humidity
48041;BME280;33815;48.386;11.738;2022-07-04T00:02:02;96640.03;;;16.84;100.00
48041;BME280;33815;48.386;11.738;2022-07-04T00:04:28;96645.19;;;16.92;100.00
48041;BME280;33815;48.386;11.738;2022-07-04T00:06:53;96643.91;;;16.88;100.00
48041;BME280;33815;48.386;11.738;2022-07-04T00:09:18;96656.00;;;16.82;100.00
48041;BME280;33815;48.386;11.738;2022-07-04T00:11:44;96665.75;;;17.03;100.00
48041;BME280;33815;48.386;11.738;2022-07-04T00:14:09;96644.50;;;17.05;100.00
48041;BME280;33815;48.386;11.738;2022-07-04T00:16:34;96629.44;;;16.99;100.00
48041;BME280;33815;48.386;11.738;2022-07-04T00:19:00;96639.34;;;16.97;100.00
48041;BME280;33815;48.386;11.738;2022-07-04T00:21:26;96626.41;;;16.80;100.00
48041;BME280;33815;48.386;11.738;2022-07-04T00:23:51;96653.38;;;16.82;100.00
48041;BME280;33815;48.386;11.738;2022-07-04T00:26:16;96644.53;;;16.68;100.00
48041;BME280;33815;48.386;11.738;2022-07-04T00:28:42;96631.88;;;16.57;100.00
48041;BME280;33815;48.386;11.738;2022-07-04T00:31:07;96667.69;;;16.58;100.00
48041;BME280;33815;48.386;11.738;2022-07-04T00:33:32;96672.72;;;16.53;100.00
48041;BME280;33815;48.386;11.738;2022-07-04T00:35:58;96661.63;;;16.57;100.00
48041;BME280;33815;48.386;11.738;2022-07-04T00:38:23;96645.03;;;16.57;100.00
48041;BME280;33815;48.386;11.738;2022-07-04T00:40:48;96668.41;;;16.67;100.00
48041;BME280;33815;48.386;11.738;2022-07-04T00:43:21;96679.69;;;16.82;100.00
48041;BME280;33815;48.386;11.738;2022-07-04T00:45:47;96676.53;;;16.72;100.00
48041;BME280;33815;48.386;11.738;2022-07-04T00:48:12;96689.03;;;16.85;100.00
48041;BME280;33815;48.386;11.738;2022-07-04T00:50:38;96672.41;;;16.84;100.00
48041;BME280;33815;48.386;11.738;2022-07-04T00:53:03;96681.75;;;16.87;100.00
48041;BME280;33815;48.386;11.738;2022-07-04T00:55:29;96677.69;;;16.84;100.00
48041;BME280;33815;48.386;11.738;2022-07-04T00:57:54;96665.34;;;16.85;100.00
48041;BME280;33815;48.386;11.738;2022-07-04T01:00:20;96689.13;;;16.91;100.00
48041;BME280;33815;48.386;11.738;2022-07-04T01:02:46;96684.38;;;17.02;100.00
48041;BME280;33815;48.386;11.738;2022-07-04T01:05:12;96678.09;;;17.03;100.00
48041;BME280;33815;48.386;11.738;2022-07-04T01:07:37;96661.81;;;16.92;100.00
48041;BME280;33815;48.386;11.738;2022-07-04T01:10:03;96669.13;;;16.97;100.00
48041;BME280;33815;48.386;11.738;2022-07-04T01:12:29;96670.84;;;17.05;100.00
48041;BME280;33815;48.386;11.738;2022-07-04T01:14:55;96660.97;;;17.13;100.00
48041;BME280;33815;48.386;11.738;2022-07-04T01:17:20;96642.44;;;17.00;100.00
48041;BME280;33815;48.386;11.738;2022-07-04T01:19:46;96641.00;;;16.98;100.00
48041;BME280;33815;48.386;11.738;2022-07-04T01:22:11;96645.31;;;17.05;100.00
48041;BME280;33815;48.386;11.738;2022-07-04T01:24:37;96644.50;;;17.05;100.00
48041;BME280;33815;48.386;11.738;2022-07-04T01:27:02;96656.16;;;16.95;100.00
48041;BME280;33815;48.386;11.738;2022-07-04T01:29:28;96659.56;;;16.89;100.00
48041;BME280;33815;48.386;11.738;2022-07-04T01:31:53;96678.09;;;17.03;100.00
48041;BME280;33815;48.386;11.738;2022-07-04T01:34:19;96680.97;;;17.08;100.00
48041;BME280;33815;48.386;11.738;2022-07-04T01:36:45;96695.66;;;17.17;100.00
48041;BME280;33815;48.386;11.738;2022-07-04T01:39:10;96690.41;;;17.17;100.00
48041;BME280;33815;48.386;11.738;2022-07-04T01:41:35;96697.41;;;17.32;100.00
48041;BME280;33815;48.386;11.738;2022-07-04T01:44:01;96690.00;;;17.20;100.00
48041;BME280;33815;48.386;11.738;2022-07-04T01:46:26;96692.50;;;17.28;100.00
48041;BME280;33815;48.386;11.738;2022-07-04T01:48:51;96665.84;;;17.17;100.00
48041;BME280;33815;48.386;11.738;2022-07-04T01:51:17;96679.47;;;17.20;100.00
48041;BME280;33815;48.386;11.738;2022-07-04T01:53:42;96674.81;;;17.22;100.00
48041;BME280;33815;48.386;11.738;2022-07-04T01:56:07;96666.91;;;17.22;100.00
48041;BME280;33815;48.386;11.738;2022-07-04T01:58:33;96663.66;;;17.20;100.00
48041;BME280;33815;48.386;11.738;2022-07-04T02:00:58;96650.25;;;17.15;100.00
48041;BME280;33815;48.386;11.738;2022-07-04T02:03:42;96646.38;;;17.11;100.00
48041;BME280;33815;48.386;11.738;2022-07-04T02:06:07;96654.25;;;17.11;100.00
48041;BME280;33815;48.386;11.738;2022-07-04T02:08:33;96654.84;;;17.06;100.00
48041;BME280;33815;48.386;11.738;2022-07-04T02:11:16;96664.53;;;17.27;100.00
48041;BME280;33815;48.386;11.738;2022-07-04T02:13:42;96653.19;;;17.27;100.00
48041;BME280;33815;48.386;11.738;2022-07-04T02:16:07;96660.97;;;17.35;100.00
48041;BME280;33815;48.386;11.738;2022-07-04T02:18:32;96669.47;;;17.37;100.00
48041;BME280;33815;48.386;11.738;2022-07-04T02:20:58;96663.00;;;17.40;100.00
48041;BME280;33815;48.386;11.738;2022-07-04T02:23:23;96672.91;;;17.38;100.00
48041;BME280;33815;48.386;11.738;2022-07-04T02:25:49;96668.28;;;17.40;100.00
48041;BME280;33815;48.386;11.738;2022-07-04T02:28:14;96671.91;;;17.39;100.00
48041;BME280;33815;48.386;11.738;2022-07-04T02:30:39;96670.28;;;17.38;100.00
48041;BME280;33815;48.386;11.738;2022-07-04T02:33:04;96654.44;;;17.31;100.00
48041;BME280;33815;48.386;11.738;2022-07-04T02:35:30;96669.41;;;17.30;100.00
48041;BME280;33815;48.386;11.738;2022-07-04T02:37:55;96663.53;;;17.28;100.00
48041;BME280;33815;48.386;11.738;2022-07-04T02:40:20;96664.91;;;17.24;100.00
48041;BME280;33815;48.386;11.738;2022-07-04T02:42:46;96674.22;;;17.20;100.00
48041;BME280;33815;48.386;11.738;2022-07-04T02:45:11;96654.22;;;17.04;100.00
48041;BME280;33815;48.386;11.738;2022-07-04T02:47:37;96678.16;;;17.09;100.00
48041;BME280;33815;48.386;11.738;2022-07-04T02:50:03;96674.66;;;17.02;100.00
48041;BME280;33815;48.386;11.738;2022-07-04T02:52:29;96675.13;;;17.12;100.00
48041;BME280;33815;48.386;11.738;2022-07-04T02:54:55;96677.09;;;17.04;100.00
48041;BME280;33815;48.386;11.738;2022-07-04T02:57:20;96684.56;;;17.00;100.00
48041;BME280;33815;48.386;11.738;2022-07-04T02:59:45;96663.44;;;16.93;100.00
48041;BME280;33815;48.386;11.738;2022-07-04T03:02:11;96679.34;;;17.07;100.00
48041;BME280;33815;48.386;11.738;2022-07-04T03:04:36;96671.53;;;16.92;100.00
48041;BME280;33815;48.386;11.738;2022-07-04T03:07:05;96692.16;;;17.10;100.00
48041;BME280;33815;48.386;11.738;2022-07-04T03:09:31;96692.00;;;17.18;100.00
48041;BME280;33815;48.386;11.738;2022-07-04T03:11:56;96686.72;;;17.18;100.00
48041;BME280;33815;48.386;11.738;2022-07-04T03:14:21;96695.22;;;17.13;100.00
48041;BME280;33815;48.386;11.738;2022-07-04T03:16:46;96687.38;;;16.99;100.00
48041;BME280;33815;48.386;11.738;2022-07-04T03:19:12;96702.44;;;17.05;100.00
48041;BME280;33815;48.386;11.738;2022-07-04T03:21:37;96706.44;;;17.01;100.00
48041;BME280;33815;48.386;11.738;2022-07-04T03:24:02;96706.75;;;16.91;100.00
48041;BME280;33815;48.386;11.738;2022-07-04T03:26:31;96712.56;;;16.86;100.00
48041;BME280;33815;48.386;11.738;2022-07-04T03:28:57;96707.22;;;16.79;100.00
48041;BME280;33815;48.386;11.738;2022-07-04T03:31:23;96704.31;;;16.74;100.00
48041;BME280;33815;48.386;11.738;2022-07-04T03:33:49;96694.47;;;16.61;100.00
48041;BME280;33815;48.386;11.738;2022-07-04T03:36:14;96706.25;;;16.66;100.00
48041;BME280;33815;48.386;11.738;2022-07-04T03:38:40;96710.25;;;16.61;100.00
48041;BME280;33815;48.386;11.738;2022-07-04T03:41:05;96708.97;;;16.57;100.00
48041;BME280;33815;48.386;11.738;2022-07-04T03:43:30;96715.44;;;16.55;100.00
48041;BME280;33815;48.386;11.738;2022-07-04T03:45:56;96718.03;;;16.70;100.00
48041;BME280;33815;48.386;11.738;2022-07-04T03:48:21;96728.25;;;16.79;100.00
48041;BME280;33815;48.386;11.738;2022-07-04T03:50:46;96748.06;;;16.75;100.00
48041;BME280;33815;48.386;11.738;2022-07-04T03:53:12;96748.06;;;16.60;100.00
48041;BME280;33815;48.386;11.738;2022-07-04T03:55:38;96736.09;;;16.58;100.00
48041;BME280;33815;48.386;11.738;2022-07-04T03:58:04;96736.56;;;16.47;100.00
48041;BME280;33815;48.386;11.738;2022-07-04T04:00:30;96736.50;;;16.40;100.00
48041;BME280;33815;48.386;11.738;2022-07-04T04:02:56;96734.06;;;16.38;100.00
48041;BME280;33815;48.386;11.738;2022-07-04T04:05:21;96737.22;;;16.34;100.00
48041;BME280;33815;48.386;11.738;2022-07-04T04:08:01;96743.41;;;16.26;100.00
48041;BME280;33815;48.386;11.738;2022-07-04T04:10:28;96738.69;;;16.21;100.00
48041;BME280;33815;48.386;11.738;2022-07-04T04:12:54;96754.31;;;16.23;100.00
48041;BME280;33815;48.386;11.738;2022-07-04T04:15:20;96762.25;;;16.30;100.00
48041;BME280;33815;48.386;11.738;2022-07-04T04:17:45;96756.38;;;16.27;100.00
48041;BME280;33815;48.386;11.738;2022-07-04T04:20:10;96739.94;;;16.40;100.00
48041;BME280;33815;48.386;11.738;2022-07-04T04:22:36;96743.09;;;16.51;100.00
48041;BME280;33815;48.386;11.738;2022-07-04T04:25:02;96752.81;;;16.65;100.00
48041;BME280;33815;48.386;11.738;2022-07-04T04:27:27;96763.38;;;16.72;100.00
48041;BME280;33815;48.386;11.738;2022-07-04T04:29:53;96778.84;;;16.75;100.00
48041;BME280;33815;48.386;11.738;2022-07-04T04:32:18;96793.06;;;16.81;100.00
48041;BME280;33815;48.386;11.738;2022-07-04T04:34:43;96777.72;;;16.84;100.00
48041;BME280;33815;48.386;11.738;2022-07-04T04:37:09;96791.69;;;17.00;100.00
48041;BME280;33815;48.386;11.738;2022-07-04T04:39:34;96790.31;;;17.04;100.00
48041;BME280;33815;48.386;11.738;2022-07-04T04:41:59;96783.34;;;16.96;100.00
48041;BME280;33815;48.386;11.738;2022-07-04T04:44:25;96799.78;;;16.98;100.00
48041;BME280;33815;48.386;11.738;2022-07-04T04:46:50;96801.84;;;17.03;100.00
48041;BME280;33815;48.386;11.738;2022-07-04T04:49:15;96792.22;;;17.10;100.00
48041;BME280;33815;48.386;11.738;2022-07-04T04:51:42;96796.28;;;17.12;100.00
48041;BME280;33815;48.386;11.738;2022-07-04T04:54:08;96800.06;;;17.25;100.00
48041;BME280;33815;48.386;11.738;2022-07-04T04:56:33;96786.78;;;17.33;100.00
48041;BME280;33815;48.386;11.738;2022-07-04T04:58:58;96793.78;;;17.47;100.00
48041;BME280;33815;48.386;11.738;2022-07-04T05:01:23;96782.31;;;17.55;100.00
48041;BME280;33815;48.386;11.738;2022-07-04T05:03:49;96800.63;;;17.63;100.00
48041;BME280;33815;48.386;11.738;2022-07-04T05:06:14;96792.34;;;17.67;100.00
48041;BME280;33815;48.386;11.738;2022-07-04T05:08:39;96764.94;;;17.61;100.00
48041;BME280;33815;48.386;11.738;2022-07-04T05:11:05;96783.09;;;17.99;100.00
48041;BME280;33815;48.386;11.738;2022-07-04T05:13:30;96769.38;;;18.10;100.00
48041;BME280;33815;48.386;11.738;2022-07-04T05:15:55;96770.13;;;18.32;100.00
48041;BME280;33815;48.386;11.738;2022-07-04T05:18:20;96764.69;;;18.41;100.00
48041;BME280;33815;48.386;11.738;2022-07-04T05:20:46;96764.09;;;18.45;100.00
48041;BME280;33815;48.386;11.738;2022-07-04T05:23:11;96777.97;;;18.61;100.00
48041;BME280;33815;48.386;11.738;2022-07-04T05:25:36;96795.78;;;18.87;100.00
48041;BME280;33815;48.386;11.738;2022-07-04T05:28:02;96799.47;;;18.93;100.00
48041;BME280;33815;48.386;11.738;2022-07-04T05:30:27;96804.97;;;18.98;100.00
48041;BME280;33815;48.386;11.738;2022-07-04T05:32:52;96800.72;;;19.10;100.00
48041;BME280;33815;48.386;11.738;2022-07-04T05:35:18;96812.97;;;19.25;100.00
48041;BME280;33815;48.386;11.738;2022-07-04T05:37:43;96805.69;;;19.47;100.00
48041;BME280;33815;48.386;11.738;2022-07-04T05:40:09;96804.06;;;19.59;100.00
48041;BME280;33815;48.386;11.738;2022-07-04T05:42:36;96810.38;;;19.65;100.00
48041;BME280;33815;48.386;11.738;2022-07-04T05:45:02;96815.06;;;19.76;98.04
48041;BME280;33815;48.386;11.738;2022-07-04T05:47:28;96817.53;;;19.71;98.53
48041;BME280;33815;48.386;11.738;2022-07-04T05:49:53;96817.16;;;19.81;98.55
48041;BME280;33815;48.386;11.738;2022-07-04T05:52:18;96824.88;;;19.96;97.48
48041;BME280;33815;48.386;11.738;2022-07-04T05:54:44;96831.41;;;19.93;97.61
48041;BME280;33815;48.386;11.738;2022-07-04T05:57:09;96830.16;;;20.02;96.31
48041;BME280;33815;48.386;11.738;2022-07-04T05:59:34;96825.09;;;20.08;97.10
48041;BME280;33815;48.386;11.738;2022-07-04T06:02:00;96825.50;;;19.98;97.74
48041;BME280;33815;48.386;11.738;2022-07-04T06:04:25;96827.53;;;20.09;95.62
48041;BME280;33815;48.386;11.738;2022-07-04T06:06:51;96832.00;;;20.09;95.97
48041;BME280;33815;48.386;11.738;2022-07-04T06:09:16;96814.69;;;20.19;94.56
48041;BME280;33815;48.386;11.738;2022-07-04T06:11:41;96813.84;;;20.32;93.32
48041;BME280;33815;48.386;11.738;2022-07-04T06:14:07;96826.66;;;20.49;91.65
48041;BME280;33815;48.386;11.738;2022-07-04T06:16:32;96825.81;;;20.68;92.46
48041;BME280;33815;48.386;11.738;2022-07-04T06:18:57;96825.34;;;20.85;90.27
48041;BME280;33815;48.386;11.738;2022-07-04T06:21:22;96836.84;;;21.11;88.86
48041;BME280;33815;48.386;11.738;2022-07-04T06:23:48;96839.44;;;21.31;88.20
48041;BME280;33815;48.386;11.738;2022-07-04T06:26:13;96837.91;;;21.42;85.49
48041;BME280;33815;48.386;11.738;2022-07-04T06:28:38;96842.38;;;21.48;85.18
48041;BME280;33815;48.386;11.738;2022-07-04T06:31:03;96836.75;;;21.69;81.70
48041;BME280;33815;48.386;11.738;2022-07-04T06:33:29;96839.81;;;21.73;81.39
48041;BME280;33815;48.386;11.738;2022-07-04T06:35:54;96834.28;;;21.75;80.37
48041;BME280;33815;48.386;11.738;2022-07-04T06:38:27;96822.75;;;21.62;81.52
48041;BME280;33815;48.386;11.738;2022-07-04T06:40:54;96835.31;;;21.73;80.98
48041;BME280;33815;48.386;11.738;2022-07-04T06:43:20;96834.09;;;21.69;80.92
48041;BME280;33815;48.386;11.738;2022-07-04T06:45:45;96817.59;;;21.67;80.36
48041;BME280;33815;48.386;11.738;2022-07-04T06:48:11;96827.03;;;21.63;80.27
48041;BME280;33815;48.386;11.738;2022-07-04T06:50:37;96833.06;;;21.38;81.22
48041;BME280;33815;48.386;11.738;2022-07-04T06:53:04;96839.53;;;21.49;81.15
48041;BME280;33815;48.386;11.738;2022-07-04T06:55:30;96831.91;;;21.66;80.25
48041;BME280;33815;48.386;11.738;2022-07-04T06:57:55;96834.63;;;21.53;81.12
48041;BME280;33815;48.386;11.738;2022-07-04T07:00:20;96840.41;;;21.75;80.43
48041;BME280;33815;48.386;11.738;2022-07-04T07:02:45;96829.97;;;21.80;80.51
48041;BME280;33815;48.386;11.738;2022-07-04T07:05:11;96810.56;;;22.05;79.72
48041;BME280;33815;48.386;11.738;2022-07-04T07:07:36;96825.69;;;22.04;80.14
48041;BME280;33815;48.386;11.738;2022-07-04T07:10:02;96820.09;;;22.13;79.94
48041;BME280;33815;48.386;11.738;2022-07-04T07:12:28;96826.53;;;22.23;78.07
48041;BME280;33815;48.386;11.738;2022-07-04T07:14:54;96833.59;;;22.11;78.48
48041;BME280;33815;48.386;11.738;2022-07-04T07:17:19;96826.13;;;22.01;78.17
48041;BME280;33815;48.386;11.738;2022-07-04T07:19:45;96830.06;;;21.92;78.60
48041;BME280;33815;48.386;11.738;2022-07-04T07:22:12;96835.13;;;22.19;78.75
48041;BME280;33815;48.386;11.738;2022-07-04T07:24:37;96835.41;;;22.11;80.51
48041;BME280;33815;48.386;11.738;2022-07-04T07:27:03;96835.91;;;22.01;79.07
48041;BME280;33815;48.386;11.738;2022-07-04T07:29:28;96838.84;;;21.93;79.66
48041;BME280;33815;48.386;11.738;2022-07-04T07:31:54;96841.50;;;21.93;80.32
48041;BME280;33815;48.386;11.738;2022-07-04T07:34:19;96843.38;;;21.85;80.44
48041;BME280;33815;48.386;11.738;2022-07-04T07:36:44;96848.75;;;21.79;80.18
48041;BME280;33815;48.386;11.738;2022-07-04T07:39:10;96846.84;;;21.54;79.85
48041;BME280;33815;48.386;11.738;2022-07-04T07:41:35;96839.97;;;21.39;81.44
48041;BME280;33815;48.386;11.738;2022-07-04T07:44:00;96844.59;;;21.51;82.06
48041;BME280;33815;48.386;11.738;2022-07-04T07:46:26;96841.78;;;21.52;81.81
48041;BME280;33815;48.386;11.738;2022-07-04T07:48:51;96846.44;;;21.57;80.81
48041;BME280;33815;48.386;11.738;2022-07-04T07:51:16;96844.53;;;21.64;81.73
48041;BME280;33815;48.386;11.738;2022-07-04T07:53:42;96841.81;;;21.78;80.89
48041;BME280;33815;48.386;11.738;2022-07-04T07:56:08;96830.94;;;21.86;80.71
48041;BME280;33815;48.386;11.738;2022-07-04T07:58:33;96809.22;;;21.70;78.83
48041;BME280;33815;48.386;11.738;2022-07-04T08:00:59;96805.31;;;21.98;78.64
48041;BME280;33815;48.386;11.738;2022-07-04T08:03:25;96806.38;;;22.16;76.71
48041;BME280;33815;48.386;11.738;2022-07-04T08:06:09;96792.53;;;22.14;77.50
48041;BME280;33815;48.386;11.738;2022-07-04T08:08:35;96808.06;;;22.35;75.93
48041;BME280;33815;48.386;11.738;2022-07-04T08:11:00;96805.06;;;22.50;74.93
48041;BME280;33815;48.386;11.738;2022-07-04T08:13:25;96802.84;;;22.66;74.16
48041;BME280;33815;48.386;11.738;2022-07-04T08:15:51;96795.34;;;22.63;73.80
48041;BME280;33815;48.386;11.738;2022-07-04T08:18:16;96798.94;;;22.68;73.79
48041;BME280;33815;48.386;11.738;2022-07-04T08:20:43;96791.97;;;22.86;71.84
48041;BME280;33815;48.386;11.738;2022-07-04T08:23:08;96798.75;;;23.00;71.47
48041;BME280;33815;48.386;11.738;2022-07-04T08:25:33;96804.75;;;22.96;71.78
48041;BME280;33815;48.386;11.738;2022-07-04T08:27:59;96791.19;;;23.46;71.85
48041;BME280;33815;48.386;11.738;2022-07-04T08:30:24;96771.47;;;23.77;71.26
48041;BME280;33815;48.386;11.738;2022-07-04T08:32:49;96802.88;;;24.35;70.02
48041;BME280;33815;48.386;11.738;2022-07-04T08:35:15;96790.50;;;24.28;67.53
48041;BME280;33815;48.386;11.738;2022-07-04T08:37:40;96808.25;;;23.69;69.96
48041;BME280;33815;48.386;11.738;2022-07-04T08:40:07;96799.16;;;23.76;69.38
48041;BME280;33815;48.386;11.738;2022-07-04T08:42:36;96785.47;;;23.61;70.17
48041;BME280;33815;48.386;11.738;2022-07-04T08:45:03;96805.81;;;23.67;69.87
48041;BME280;33815;48.386;11.738;2022-07-04T08:47:32;96791.38;;;23.75;69.57
48041;BME280;33815;48.386;11.738;2022-07-04T08:50:06;96778.72;;;24.01;71.88
48041;BME280;33815;48.386;11.738;2022-07-04T08:52:37;96783.31;;;24.29;69.19
48041;BME280;33815;48.386;11.738;2022-07-04T08:55:04;96781.81;;;24.97;64.91
48041;BME280;33815;48.386;11.738;2022-07-04T08:57:48;96787.59;;;25.35;62.33
48041;BME280;33815;48.386;11.738;2022-07-04T09:00:34;96783.09;;;25.70;62.23
48041;BME280;33815;48.386;11.738;2022-07-04T09:03:01;96783.44;;;25.73;60.28
48041;BME280;33815;48.386;11.738;2022-07-04T09:05:28;96781.47;;;26.37;58.09
48041;BME280;33815;48.386;11.738;2022-07-04T09:07:54;96783.38;;;26.41;58.51
48041;BME280;33815;48.386;11.738;2022-07-04T09:10:20;96778.59;;;26.82;57.29
48041;BME280;33815;48.386;11.738;2022-07-04T09:12:46;96775.81;;;27.22;58.35
48041;BME280;33815;48.386;11.738;2022-07-04T09:15:11;96781.16;;;27.49;56.20
48041;BME280;33815;48.386;11.738;2022-07-04T09:17:38;96789.41;;;27.42;54.70
48041;BME280;33815;48.386;11.738;2022-07-04T09:20:14;96791.59;;;27.23;56.22
48041;BME280;33815;48.386;11.738;2022-07-04T09:22:40;96801.28;;;27.51;56.82
48041;BME280;33815;48.386;11.738;2022-07-04T09:25:05;96808.38;;;27.13;56.14
48041;BME280;33815;48.386;11.738;2022-07-04T09:27:38;96790.84;;;26.39;58.02
48041;BME280;33815;48.386;11.738;2022-07-04T09:30:06;96783.16;;;26.04;58.27
48041;BME280;33815;48.386;11.738;2022-07-04T09:32:42;96778.25;;;25.83;59.15
48041;BME280;33815;48.386;11.738;2022-07-04T09:37:36;96788.03;;;26.68;61.12
48041;BME280;33815;48.386;11.738;2022-07-04T09:40:04;96792.69;;;26.56;61.49
48041;BME280;33815;48.386;11.738;2022-07-04T09:42:41;96791.81;;;26.50;55.53
48041;BME280;33815;48.386;11.738;2022-07-04T09:45:08;96788.38;;;26.55;56.75
48041;BME280;33815;48.386;11.738;2022-07-04T09:47:35;96799.06;;;26.94;60.44
48041;BME280;33815;48.386;11.738;2022-07-04T09:50:10;96784.19;;;27.30;53.43
48041;BME280;33815;48.386;11.738;2022-07-04T09:52:49;96787.22;;;27.39;53.60
48041;BME280;33815;48.386;11.738;2022-07-04T09:55:37;96782.31;;;27.31;52.96
48041;BME280;33815;48.386;11.738;2022-07-04T09:58:05;96775.34;;;27.57;50.58
48041;BME280;33815;48.386;11.738;2022-07-04T10:00:37;96770.19;;;27.78;49.34
48041;BME280;33815;48.386;11.738;2022-07-04T10:05:45;96777.50;;;27.55;51.57
48041;BME280;33815;48.386;11.738;2022-07-04T10:08:12;96766.16;;;27.48;51.62
48041;BME280;33815;48.386;11.738;2022-07-04T10:10:38;96763.88;;;27.62;53.85
48041;BME280;33815;48.386;11.738;2022-07-04T10:13:10;96767.03;;;27.86;49.34
48041;BME280;33815;48.386;11.738;2022-07-04T10:15:38;96761.19;;;27.57;48.83
48041;BME280;33815;48.386;11.738;2022-07-04T10:18:04;96775.91;;;27.97;49.55
48041;BME280;33815;48.386;11.738;2022-07-04T10:20:30;96771.66;;;27.96;49.03
48041;BME280;33815;48.386;11.738;2022-07-04T10:22:56;96768.41;;;27.94;48.54
48041;BME280;33815;48.386;11.738;2022-07-04T10:25:22;96773.94;;;28.14;46.47
48041;BME280;33815;48.386;11.738;2022-07-04T10:27:48;96762.75;;;28.28;44.02
48041;BME280;33815;48.386;11.738;2022-07-04T10:30:21;96761.25;;;28.47;46.67
48041;BME280;33815;48.386;11.738;2022-07-04T10:32:48;96763.41;;;28.50;43.37
48041;BME280;33815;48.386;11.738;2022-07-04T10:35:15;96762.69;;;28.65;43.88
48041;BME280;33815;48.386;11.738;2022-07-04T10:38:03;96761.66;;;28.77;42.78
48041;BME280;33815;48.386;11.738;2022-07-04T10:40:55;96760.84;;;28.66;43.01
48041;BME280;33815;48.386;11.738;2022-07-04T10:45:49;96770.69;;;28.12;44.86
48041;BME280;33815;48.386;11.738;2022-07-04T10:48:20;96778.88;;;28.33;45.83
48041;BME280;33815;48.386;11.738;2022-07-04T10:50:58;96772.75;;;29.01;44.43
48041;BME280;33815;48.386;11.738;2022-07-04T10:53:24;96759.84;;;28.98;43.21
48041;BME280;33815;48.386;11.738;2022-07-04T10:55:49;96747.53;;;29.17;43.36
48041;BME280;33815;48.386;11.738;2022-07-04T10:58:38;96760.41;;;29.05;42.50
48041;BME280;33815;48.386;11.738;2022-07-04T11:01:11;96762.34;;;28.51;43.56
48041;BME280;33815;48.386;11.738;2022-07-04T11:03:47;96759.22;;;28.65;42.66
48041;BME280;33815;48.386;11.738;2022-07-04T11:09:22;96754.53;;;29.08;42.15
48041;BME280;33815;48.386;11.738;2022-07-04T11:12:02;96754.81;;;28.48;44.59
48041;BME280;33815;48.386;11.738;2022-07-04T11:14:38;96758.47;;;28.27;46.05
48041;BME280;33815;48.386;11.738;2022-07-04T11:17:08;96750.59;;;28.63;44.47
48041;BME280;33815;48.386;11.738;2022-07-04T11:19:35;96758.97;;;28.24;45.95
48041;BME280;33815;48.386;11.738;2022-07-04T11:22:00;96757.94;;;28.30;45.11
48041;BME280;33815;48.386;11.738;2022-07-04T11:24:26;96764.28;;;28.13;44.91
48041;BME280;33815;48.386;11.738;2022-07-04T11:26:52;96759.22;;;27.79;44.88
48041;BME280;33815;48.386;11.738;2022-07-04T11:29:18;96755.63;;;27.68;46.60
48041;BME280;33815;48.386;11.738;2022-07-04T11:31:47;96742.84;;;27.76;45.37
48041;BME280;33815;48.386;11.738;2022-07-04T11:34:13;96734.94;;;27.96;44.25
48041;BME280;33815;48.386;11.738;2022-07-04T11:36:40;96744.56;;;27.92;46.26
48041;BME280;33815;48.386;11.738;2022-07-04T11:39:07;96744.06;;;27.63;46.20
48041;BME280;33815;48.386;11.738;2022-07-04T11:41:35;96745.56;;;27.81;46.56
48041;BME280;33815;48.386;11.738;2022-07-04T11:44:22;96737.56;;;27.86;45.85
48041;BME280;33815;48.386;11.738;2022-07-04T11:47:08;96744.50;;;27.82;46.65
48041;BME280;33815;48.386;11.738;2022-07-04T11:49:34;96737.56;;;27.86;46.68
48041;BME280;33815;48.386;11.738;2022-07-04T11:52:00;96732.34;;;28.01;45.05
48041;BME280;33815;48.386;11.738;2022-07-04T11:54:26;96734.06;;;27.85;46.26
48041;BME280;33815;48.386;11.738;2022-07-04T11:56:51;96745.59;;;27.53;47.85
48041;BME280;33815;48.386;11.738;2022-07-04T11:59:17;96730.97;;;27.34;46.30
48041;BME280;33815;48.386;11.738;2022-07-04T12:01:43;96731.56;;;27.36;47.64
48041;BME280;33815;48.386;11.738;2022-07-04T12:04:17;96734.28;;;28.11;47.01
48041;BME280;33815;48.386;11.738;2022-07-04T12:06:45;96716.16;;;28.39;45.81
48041;BME280;33815;48.386;11.738;2022-07-04T12:09:12;96727.84;;;28.65;45.06
48041;BME280;33815;48.386;11.738;2022-07-04T12:11:50;96726.25;;;28.75;46.07
48041;BME280;33815;48.386;11.738;2022-07-04T12:14:15;96716.41;;;29.06;43.53
48041;BME280;33815;48.386;11.738;2022-07-04T12:16:40;96716.63;;;28.84;45.88
48041;BME280;33815;48.386;11.738;2022-07-04T12:19:09;96720.66;;;28.81;44.96
48041;BME280;33815;48.386;11.738;2022-07-04T12:21:35;96716.13;;;28.97;45.00
48041;BME280;33815;48.386;11.738;2022-07-04T12:24:00;96715.59;;;29.11;45.08
48041;BME280;33815;48.386;11.738;2022-07-04T12:26:29;96694.91;;;28.80;45.15
48041;BME280;33815;48.386;11.738;2022-07-04T12:28:55;96690.63;;;28.84;45.46
48041;BME280;33815;48.386;11.738;2022-07-04T12:31:37;96688.75;;;29.11;44.49
48041;BME280;33815;48.386;11.738;2022-07-04T12:34:03;96698.22;;;29.24;43.96
48041;BME280;33815;48.386;11.738;2022-07-04T12:36:28;96687.44;;;29.13;44.00
48041;BME280;33815;48.386;11.738;2022-07-04T12:38:54;96682.09;;;29.29;43.65
48041;BME280;33815;48.386;11.738;2022-07-04T12:41:29;96686.41;;;29.50;42.90
48041;BME280;33815;48.386;11.738;2022-07-04T12:43:55;96677.81;;;29.59;44.91
48041;BME280;33815;48.386;11.738;2022-07-04T12:46:26;96674.50;;;30.03;42.90
48041;BME280;33815;48.386;11.738;2022-07-04T12:48:53;96661.94;;;29.72;42.86
48041;BME280;33815;48.386;11.738;2022-07-04T12:51:24;96674.22;;;30.15;43.44
48041;BME280;33815;48.386;11.738;2022-07-04T12:53:52;96652.44;;;30.11;40.72
48041;BME280;33815;48.386;11.738;2022-07-04T12:56:46;96660.78;;;30.10;44.53